sensor_id;sensor_type;location;lat;lon;timestamp;P1;durP1;ratioP1;P2;durP2;ratioP2
286;SDS011;127;48.770;9.212;2023-04-24T00:02:25;2.00;;;1.50;;
286;SDS011;127;48.770;9.212;2023-04-24T00:05:04;2.03;;;1.93;;
286;SDS011;127;48.770;9.212;2023-04-24T00:07:34;5.00;;;1.80;;
286;SDS011;127;48.770;9.212;2023-04-24T00:10:03;1.50;;;1.50;;
286;SDS011;127;48.770;9.212;2023-04-24T00:12:38;2.20;;;2.00;;
286;SDS011;127;48.770;9.212;2023-04-24T00:15:10;2.03;;;1.70;;
286;SDS011;127;48.770;9.212;2023-04-24T00:17:41;2.53;;;1.70;;
286;SDS011;127;48.770;9.212;2023-04-24T00:20:11;2.30;;;2.00;;
286;SDS011;127;48.770;9.212;2023-04-24T00:22:49;4.13;;;1.80;;
286;SDS011;127;48.770;9.212;2023-04-24T00:25:17;2.20;;;1.90;;
286;SDS011;127;48.770;9.212;2023-04-24T00:27:49;2.33;;;1.77;;
286;SDS011;127;48.770;9.212;2023-04-24T00:30:18;2.93;;;1.77;;
286;SDS011;127;48.770;9.212;2023-04-24T00:32:52;5.20;;;1.97;;
286;SDS011;127;48.770;9.212;2023-04-24T00:36:00;3.90;;;1.80;;
286;SDS011;127;48.770;9.212;2023-04-24T00:38:21;3.80;;;2.03;;
286;SDS011;127;48.770;9.212;2023-04-24T00:40:50;3.37;;;1.90;;
286;SDS011;127;48.770;9.212;2023-04-24T00:43:19;1.70;;;1.60;;
286;SDS011;127;48.770;9.212;2023-04-24T00:45:53;2.07;;;1.60;;
286;SDS011;127;48.770;9.212;2023-04-24T00:48:28;3.50;;;1.73;;
286;SDS011;127;48.770;9.212;2023-04-24T00:50:58;3.53;;;1.70;;
286;SDS011;127;48.770;9.212;2023-04-24T00:53:29;2.13;;;1.40;;
286;SDS011;127;48.770;9.212;2023-04-24T00:56:02;4.90;;;1.60;;
286;SDS011;127;48.770;9.212;2023-04-24T00:58:32;1.80;;;1.70;;
286;SDS011;127;48.770;9.212;2023-04-24T01:01:04;2.80;;;1.60;;
286;SDS011;127;48.770;9.212;2023-04-24T01:03:37;1.67;;;1.47;;
286;SDS011;127;48.770;9.212;2023-04-24T01:06:08;2.10;;;1.60;;
286;SDS011;127;48.770;9.212;2023-04-24T01:08:38;5.47;;;1.50;;
286;SDS011;127;48.770;9.212;2023-04-24T01:11:09;6.50;;;2.00;;
286;SDS011;127;48.770;9.212;2023-04-24T01:13:42;3.77;;;1.57;;
286;SDS011;127;48.770;9.212;2023-04-24T01:16:21;2.80;;;1.73;;
286;SDS011;127;48.770;9.212;2023-04-24T01:18:53;2.97;;;2.00;;
286;SDS011;127;48.770;9.212;2023-04-24T01:21:36;2.30;;;1.57;;
286;SDS011;127;48.770;9.212;2023-04-24T01:27:22;2.83;;;1.97;;
286;SDS011;127;48.770;9.212;2023-04-24T01:30:12;4.60;;;1.97;;
286;SDS011;127;48.770;9.212;2023-04-24T01:32:50;3.37;;;2.20;;
286;SDS011;127;48.770;9.212;2023-04-24T01:35:22;3.50;;;1.60;;
286;SDS011;127;48.770;9.212;2023-04-24T01:37:53;4.20;;;1.70;;
286;SDS011;127;48.770;9.212;2023-04-24T01:40:22;5.23;;;2.20;;
286;SDS011;127;48.770;9.212;2023-04-24T01:43:02;2.60;;;1.80;;
286;SDS011;127;48.770;9.212;2023-04-24T01:45:31;3.70;;;1.90;;
286;SDS011;127;48.770;9.212;2023-04-24T01:48:00;3.87;;;1.80;;
286;SDS011;127;48.770;9.212;2023-04-24T01:50:29;2.10;;;1.60;;
286;SDS011;127;48.770;9.212;2023-04-24T01:53:11;4.70;;;1.90;;
286;SDS011;127;48.770;9.212;2023-04-24T01:55:44;3.37;;;1.73;;
286;SDS011;127;48.770;9.212;2023-04-24T01:58:16;5.13;;;1.90;;
286;SDS011;127;48.770;9.212;2023-04-24T02:00:46;1.53;;;1.50;;
286;SDS011;127;48.770;9.212;2023-04-24T02:03:16;9.30;;;2.00;;
286;SDS011;127;48.770;9.212;2023-04-24T02:05:47;6.13;;;1.50;;
286;SDS011;127;48.770;9.212;2023-04-24T02:08:15;2.00;;;1.60;;
286;SDS011;127;48.770;9.212;2023-04-24T02:10:55;2.17;;;1.97;;
286;SDS011;127;48.770;9.212;2023-04-24T02:13:27;4.53;;;1.90;;
286;SDS011;127;48.770;9.212;2023-04-24T02:16:01;2.67;;;1.93;;
286;SDS011;127;48.770;9.212;2023-04-24T02:18:32;3.13;;;1.60;;
286;SDS011;127;48.770;9.212;2023-04-24T02:21:00;11.43;;;2.20;;
286;SDS011;127;48.770;9.212;2023-04-24T02:23:29;1.83;;;1.40;;
286;SDS011;127;48.770;9.212;2023-04-24T02:26:02;3.30;;;1.50;;
286;SDS011;127;48.770;9.212;2023-04-24T02:28:41;3.10;;;2.00;;
286;SDS011;127;48.770;9.212;2023-04-24T02:31:23;1.80;;;1.40;;
286;SDS011;127;48.770;9.212;2023-04-24T02:33:54;2.50;;;1.60;;
286;SDS011;127;48.770;9.212;2023-04-24T02:36:24;3.80;;;1.70;;
286;SDS011;127;48.770;9.212;2023-04-24T02:38:53;4.60;;;1.90;;
286;SDS011;127;48.770;9.212;2023-04-24T02:41:27;3.40;;;1.63;;
286;SDS011;127;48.770;9.212;2023-04-24T02:44:00;2.60;;;1.53;;
286;SDS011;127;48.770;9.212;2023-04-24T02:46:31;9.37;;;2.30;;
286;SDS011;127;48.770;9.212;2023-04-24T02:49:07;1.80;;;1.70;;
286;SDS011;127;48.770;9.212;2023-04-24T02:51:37;2.53;;;1.63;;
286;SDS011;127;48.770;9.212;2023-04-24T02:54:09;1.90;;;1.70;;
286;SDS011;127;48.770;9.212;2023-04-24T02:56:39;3.20;;;2.00;;
286;SDS011;127;48.770;9.212;2023-04-24T02:59:14;2.97;;;1.63;;
286;SDS011;127;48.770;9.212;2023-04-24T03:01:48;3.20;;;1.70;;
286;SDS011;127;48.770;9.212;2023-04-24T03:04:20;2.03;;;1.73;;
286;SDS011;127;48.770;9.212;2023-04-24T03:06:49;3.43;;;1.90;;
286;SDS011;127;48.770;9.212;2023-04-24T03:09:21;4.40;;;1.83;;
286;SDS011;127;48.770;9.212;2023-04-24T03:11:57;1.80;;;1.70;;
286;SDS011;127;48.770;9.212;2023-04-24T03:14:30;4.03;;;2.07;;
286;SDS011;127;48.770;9.212;2023-04-24T03:17:04;4.47;;;1.90;;
286;SDS011;127;48.770;9.212;2023-04-24T03:22:19;3.20;;;2.00;;
286;SDS011;127;48.770;9.212;2023-04-24T03:24:57;2.00;;;1.90;;
286;SDS011;127;48.770;9.212;2023-04-24T03:27:34;3.27;;;2.27;;
286;SDS011;127;48.770;9.212;2023-04-24T03:30:10;2.67;;;2.10;;
286;SDS011;127;48.770;9.212;2023-04-24T03:32:40;5.47;;;2.07;;
286;SDS011;127;48.770;9.212;2023-04-24T03:35:16;3.70;;;1.70;;
286;SDS011;127;48.770;9.212;2023-04-24T03:37:47;7.50;;;2.00;;
286;SDS011;127;48.770;9.212;2023-04-24T03:40:19;2.53;;;1.70;;
286;SDS011;127;48.770;9.212;2023-04-24T03:42:48;2.33;;;1.97;;
286;SDS011;127;48.770;9.212;2023-04-24T03:45:21;2.37;;;1.63;;
286;SDS011;127;48.770;9.212;2023-04-24T03:47:52;2.20;;;2.00;;
286;SDS011;127;48.770;9.212;2023-04-24T03:50:24;1.80;;;1.70;;
286;SDS011;127;48.770;9.212;2023-04-24T03:52:54;1.63;;;1.60;;
286;SDS011;127;48.770;9.212;2023-04-24T03:55:29;2.80;;;1.60;;
286;SDS011;127;48.770;9.212;2023-04-24T03:58:00;3.70;;;2.33;;
286;SDS011;127;48.770;9.212;2023-04-24T04:00:49;1.83;;;1.80;;
286;SDS011;127;48.770;9.212;2023-04-24T04:03:26;2.50;;;1.67;;
286;SDS011;127;48.770;9.212;2023-04-24T04:05:54;3.60;;;2.03;;
286;SDS011;127;48.770;9.212;2023-04-24T04:08:23;4.83;;;2.00;;
286;SDS011;127;48.770;9.212;2023-04-24T04:10:52;5.00;;;2.03;;
286;SDS011;127;48.770;9.212;2023-04-24T04:13:37;2.50;;;1.87;;
286;SDS011;127;48.770;9.212;2023-04-24T04:16:08;3.27;;;1.60;;
286;SDS011;127;48.770;9.212;2023-04-24T04:18:37;3.00;;;1.87;;
286;SDS011;127;48.770;9.212;2023-04-24T04:21:06;2.97;;;2.03;;
286;SDS011;127;48.770;9.212;2023-04-24T04:23:37;2.80;;;1.77;;
286;SDS011;127;48.770;9.212;2023-04-24T04:26:20;1.90;;;1.73;;
286;SDS011;127;48.770;9.212;2023-04-24T04:28:57;2.40;;;1.90;;
286;SDS011;127;48.770;9.212;2023-04-24T04:31:28;2.03;;;1.57;;
286;SDS011;127;48.770;9.212;2023-04-24T04:33:58;3.20;;;1.90;;
286;SDS011;127;48.770;9.212;2023-04-24T04:36:34;3.00;;;1.70;;
286;SDS011;127;48.770;9.212;2023-04-24T04:39:05;6.50;;;2.37;;
286;SDS011;127;48.770;9.212;2023-04-24T04:41:34;2.70;;;2.17;;
286;SDS011;127;48.770;9.212;2023-04-24T04:44:02;2.40;;;2.27;;
286;SDS011;127;48.770;9.212;2023-04-24T04:46:36;2.90;;;2.33;;
286;SDS011;127;48.770;9.212;2023-04-24T04:49:06;6.10;;;2.30;;
286;SDS011;127;48.770;9.212;2023-04-24T04:51:36;2.90;;;2.50;;
286;SDS011;127;48.770;9.212;2023-04-24T04:54:05;1.93;;;1.83;;
286;SDS011;127;48.770;9.212;2023-04-24T04:56:35;5.10;;;2.10;;
286;SDS011;127;48.770;9.212;2023-04-24T04:59:03;3.47;;;2.70;;
286;SDS011;127;48.770;9.212;2023-04-24T05:01:38;5.60;;;2.60;;
286;SDS011;127;48.770;9.212;2023-04-24T05:04:07;4.47;;;2.50;;
286;SDS011;127;48.770;9.212;2023-04-24T05:06:35;6.33;;;2.77;;
286;SDS011;127;48.770;9.212;2023-04-24T05:09:06;2.57;;;2.37;;
286;SDS011;127;48.770;9.212;2023-04-24T05:11:38;3.07;;;2.30;;
286;SDS011;127;48.770;9.212;2023-04-24T05:14:07;4.30;;;2.63;;
286;SDS011;127;48.770;9.212;2023-04-24T05:16:40;2.57;;;2.40;;
286;SDS011;127;48.770;9.212;2023-04-24T05:19:08;3.77;;;2.60;;
286;SDS011;127;48.770;9.212;2023-04-24T05:21:39;4.93;;;2.10;;
286;SDS011;127;48.770;9.212;2023-04-24T05:24:07;3.33;;;2.40;;
286;SDS011;127;48.770;9.212;2023-04-24T05:26:36;3.00;;;2.50;;
286;SDS011;127;48.770;9.212;2023-04-24T05:29:08;2.50;;;2.30;;
286;SDS011;127;48.770;9.212;2023-04-24T05:31:37;2.73;;;2.20;;
286;SDS011;127;48.770;9.212;2023-04-24T05:34:08;3.73;;;2.33;;
286;SDS011;127;48.770;9.212;2023-04-24T05:36:37;2.67;;;2.47;;
286;SDS011;127;48.770;9.212;2023-04-24T05:39:05;8.53;;;2.80;;
286;SDS011;127;48.770;9.212;2023-04-24T05:41:44;2.83;;;2.47;;
286;SDS011;127;48.770;9.212;2023-04-24T05:44:13;3.40;;;2.83;;
286;SDS011;127;48.770;9.212;2023-04-24T05:46:44;5.63;;;3.07;;
286;SDS011;127;48.770;9.212;2023-04-24T05:49:13;2.43;;;2.27;;
286;SDS011;127;48.770;9.212;2023-04-24T05:51:42;2.83;;;2.43;;
286;SDS011;127;48.770;9.212;2023-04-24T05:54:13;3.53;;;2.67;;
286;SDS011;127;48.770;9.212;2023-04-24T05:56:42;3.83;;;2.70;;
286;SDS011;127;48.770;9.212;2023-04-24T05:59:11;3.43;;;2.50;;
286;SDS011;127;48.770;9.212;2023-04-24T06:01:59;5.20;;;2.60;;
286;SDS011;127;48.770;9.212;2023-04-24T06:07:45;5.13;;;2.67;;
286;SDS011;127;48.770;9.212;2023-04-24T06:10:14;3.33;;;2.97;;
286;SDS011;127;48.770;9.212;2023-04-24T06:12:42;5.60;;;2.50;;
286;SDS011;127;48.770;9.212;2023-04-24T06:15:11;3.93;;;2.83;;
286;SDS011;127;48.770;9.212;2023-04-24T06:17:44;3.10;;;2.53;;
286;SDS011;127;48.770;9.212;2023-04-24T06:20:13;4.53;;;3.10;;
286;SDS011;127;48.770;9.212;2023-04-24T06:22:54;5.50;;;3.27;;
286;SDS011;127;48.770;9.212;2023-04-24T06:25:26;4.37;;;3.80;;
286;SDS011;127;48.770;9.212;2023-04-24T06:27:55;4.20;;;2.80;;
286;SDS011;127;48.770;9.212;2023-04-24T06:30:26;3.10;;;2.60;;
286;SDS011;127;48.770;9.212;2023-04-24T06:32:59;3.00;;;2.60;;
286;SDS011;127;48.770;9.212;2023-04-24T06:35:31;4.00;;;3.07;;
286;SDS011;127;48.770;9.212;2023-04-24T06:38:00;7.13;;;3.10;;
286;SDS011;127;48.770;9.212;2023-04-24T06:40:30;4.07;;;3.30;;
286;SDS011;127;48.770;9.212;2023-04-24T06:42:58;3.20;;;2.87;;
286;SDS011;127;48.770;9.212;2023-04-24T06:45:28;4.30;;;3.50;;
286;SDS011;127;48.770;9.212;2023-04-24T06:48:02;4.00;;;2.83;;
286;SDS011;127;48.770;9.212;2023-04-24T06:50:31;4.67;;;3.20;;
286;SDS011;127;48.770;9.212;2023-04-24T06:53:00;6.77;;;3.00;;
286;SDS011;127;48.770;9.212;2023-04-24T06:55:29;3.27;;;2.60;;
286;SDS011;127;48.770;9.212;2023-04-24T06:58:04;5.57;;;3.30;;
286;SDS011;127;48.770;9.212;2023-04-24T07:00:50;3.70;;;2.83;;
286;SDS011;127;48.770;9.212;2023-04-24T07:03:28;3.87;;;2.87;;
286;SDS011;127;48.770;9.212;2023-04-24T07:06:03;3.30;;;3.10;;
286;SDS011;127;48.770;9.212;2023-04-24T07:08:43;3.57;;;2.60;;
286;SDS011;127;48.770;9.212;2023-04-24T07:11:20;4.17;;;3.13;;
286;SDS011;127;48.770;9.212;2023-04-24T07:13:52;4.73;;;3.20;;
286;SDS011;127;48.770;9.212;2023-04-24T07:16:22;3.17;;;2.50;;
286;SDS011;127;48.770;9.212;2023-04-24T07:22:00;3.10;;;2.83;;
286;SDS011;127;48.770;9.212;2023-04-24T07:24:33;2.63;;;2.50;;
286;SDS011;127;48.770;9.212;2023-04-24T07:27:02;2.80;;;2.57;;
286;SDS011;127;48.770;9.212;2023-04-24T07:29:40;4.10;;;2.73;;
286;SDS011;127;48.770;9.212;2023-04-24T07:32:09;5.50;;;3.07;;
286;SDS011;127;48.770;9.212;2023-04-24T07:34:42;2.63;;;2.43;;
286;SDS011;127;48.770;9.212;2023-04-24T07:37:14;2.40;;;2.20;;
286;SDS011;127;48.770;9.212;2023-04-24T07:39:45;2.50;;;2.23;;
286;SDS011;127;48.770;9.212;2023-04-24T07:42:14;3.00;;;2.20;;
286;SDS011;127;48.770;9.212;2023-04-24T07:44:43;2.47;;;2.30;;
286;SDS011;127;48.770;9.212;2023-04-24T07:47:14;3.33;;;2.53;;
286;SDS011;127;48.770;9.212;2023-04-24T07:49:48;3.00;;;2.30;;
286;SDS011;127;48.770;9.212;2023-04-24T07:52:32;3.57;;;2.67;;
286;SDS011;127;48.770;9.212;2023-04-24T07:55:04;4.07;;;2.20;;
286;SDS011;127;48.770;9.212;2023-04-24T07:57:33;2.33;;;2.17;;
286;SDS011;127;48.770;9.212;2023-04-24T08:00:03;7.17;;;2.50;;
286;SDS011;127;48.770;9.212;2023-04-24T08:03:01;5.07;;;2.20;;
286;SDS011;127;48.770;9.212;2023-04-24T08:06:04;2.70;;;2.00;;
286;SDS011;127;48.770;9.212;2023-04-24T08:08:38;4.00;;;2.33;;
286;SDS011;127;48.770;9.212;2023-04-24T08:11:07;2.50;;;2.30;;
286;SDS011;127;48.770;9.212;2023-04-24T08:13:36;2.50;;;1.93;;
286;SDS011;127;48.770;9.212;2023-04-24T08:16:10;4.97;;;2.10;;
286;SDS011;127;48.770;9.212;2023-04-24T08:18:42;2.07;;;1.93;;
286;SDS011;127;48.770;9.212;2023-04-24T08:21:14;3.03;;;2.23;;
286;SDS011;127;48.770;9.212;2023-04-24T08:23:46;2.13;;;1.73;;
286;SDS011;127;48.770;9.212;2023-04-24T08:26:18;2.43;;;2.23;;
286;SDS011;127;48.770;9.212;2023-04-24T08:28:51;3.37;;;2.50;;
286;SDS011;127;48.770;9.212;2023-04-24T08:31:22;4.30;;;1.93;;
286;SDS011;127;48.770;9.212;2023-04-24T08:33:56;3.73;;;2.30;;
286;SDS011;127;48.770;9.212;2023-04-24T08:36:34;2.70;;;2.00;;
286;SDS011;127;48.770;9.212;2023-04-24T08:39:11;5.07;;;1.93;;
286;SDS011;127;48.770;9.212;2023-04-24T08:41:45;1.80;;;1.77;;
286;SDS011;127;48.770;9.212;2023-04-24T08:44:35;2.90;;;2.10;;
286;SDS011;127;48.770;9.212;2023-04-24T08:47:25;2.67;;;2.27;;
286;SDS011;127;48.770;9.212;2023-04-24T08:50:27;4.50;;;2.10;;
286;SDS011;127;48.770;9.212;2023-04-24T08:55:56;2.53;;;1.80;;
286;SDS011;127;48.770;9.212;2023-04-24T08:58:29;5.43;;;2.13;;
286;SDS011;127;48.770;9.212;2023-04-24T09:01:23;4.87;;;2.20;;
286;SDS011;127;48.770;9.212;2023-04-24T09:03:54;6.13;;;2.20;;
286;SDS011;127;48.770;9.212;2023-04-24T09:06:26;2.47;;;1.97;;
286;SDS011;127;48.770;9.212;2023-04-24T09:09:05;5.30;;;2.03;;
286;SDS011;127;48.770;9.212;2023-04-24T09:11:39;8.43;;;2.23;;
286;SDS011;127;48.770;9.212;2023-04-24T09:14:11;2.70;;;2.30;;
286;SDS011;127;48.770;9.212;2023-04-24T09:16:40;4.40;;;2.33;;
286;SDS011;127;48.770;9.212;2023-04-24T09:19:10;6.30;;;2.73;;
286;SDS011;127;48.770;9.212;2023-04-24T09:21:39;6.70;;;2.67;;
286;SDS011;127;48.770;9.212;2023-04-24T09:24:17;5.13;;;2.67;;
286;SDS011;127;48.770;9.212;2023-04-24T09:27:01;10.33;;;2.33;;
286;SDS011;127;48.770;9.212;2023-04-24T09:29:55;6.07;;;2.47;;
286;SDS011;127;48.770;9.212;2023-04-24T09:32:33;3.63;;;2.33;;
286;SDS011;127;48.770;9.212;2023-04-24T09:35:10;2.70;;;2.47;;
286;SDS011;127;48.770;9.212;2023-04-24T09:37:45;5.53;;;2.30;;
286;SDS011;127;48.770;9.212;2023-04-24T09:40:22;4.03;;;2.20;;
286;SDS011;127;48.770;9.212;2023-04-24T09:42:53;2.33;;;2.20;;
286;SDS011;127;48.770;9.212;2023-04-24T09:45:27;4.13;;;3.03;;
286;SDS011;127;48.770;9.212;2023-04-24T09:47:56;6.43;;;2.40;;
286;SDS011;127;48.770;9.212;2023-04-24T09:50:25;6.50;;;2.20;;
286;SDS011;127;48.770;9.212;2023-04-24T09:52:57;4.00;;;2.10;;
286;SDS011;127;48.770;9.212;2023-04-24T09:55:30;4.43;;;2.30;;
286;SDS011;127;48.770;9.212;2023-04-24T09:58:00;3.20;;;2.40;;
286;SDS011;127;48.770;9.212;2023-04-24T10:00:30;7.57;;;2.40;;
286;SDS011;127;48.770;9.212;2023-04-24T10:03:04;6.00;;;2.37;;
286;SDS011;127;48.770;9.212;2023-04-24T10:05:38;2.93;;;2.47;;
286;SDS011;127;48.770;9.212;2023-04-24T10:08:12;3.47;;;2.10;;
286;SDS011;127;48.770;9.212;2023-04-24T10:11:08;4.00;;;2.20;;
286;SDS011;127;48.770;9.212;2023-04-24T10:13:45;2.67;;;1.80;;
286;SDS011;127;48.770;9.212;2023-04-24T10:16:14;6.37;;;2.00;;
286;SDS011;127;48.770;9.212;2023-04-24T10:18:43;1.97;;;1.87;;
286;SDS011;127;48.770;9.212;2023-04-24T10:21:24;2.13;;;1.90;;
286;SDS011;127;48.770;9.212;2023-04-24T10:24:14;2.43;;;2.10;;
286;SDS011;127;48.770;9.212;2023-04-24T10:26:49;4.60;;;1.83;;
286;SDS011;127;48.770;9.212;2023-04-24T10:29:36;2.63;;;1.60;;
286;SDS011;127;48.770;9.212;2023-04-24T10:32:10;4.10;;;1.70;;
286;SDS011;127;48.770;9.212;2023-04-24T10:34:43;1.53;;;1.53;;
286;SDS011;127;48.770;9.212;2023-04-24T10:37:18;2.27;;;1.83;;
286;SDS011;127;48.770;9.212;2023-04-24T10:39:47;2.67;;;1.93;;
286;SDS011;127;48.770;9.212;2023-04-24T10:42:22;2.57;;;1.90;;
286;SDS011;127;48.770;9.212;2023-04-24T10:44:52;2.03;;;1.73;;
286;SDS011;127;48.770;9.212;2023-04-24T10:47:24;5.47;;;1.80;;
286;SDS011;127;48.770;9.212;2023-04-24T10:49:53;3.30;;;2.00;;
286;SDS011;127;48.770;9.212;2023-04-24T10:52:45;4.67;;;2.27;;
286;SDS011;127;48.770;9.212;2023-04-24T10:55:16;3.67;;;2.20;;
286;SDS011;127;48.770;9.212;2023-04-24T10:58:10;3.27;;;1.97;;
286;SDS011;127;48.770;9.212;2023-04-24T11:00:40;2.27;;;2.07;;
286;SDS011;127;48.770;9.212;2023-04-24T11:03:24;2.13;;;1.97;;
286;SDS011;127;48.770;9.212;2023-04-24T11:05:56;2.30;;;2.10;;
286;SDS011;127;48.770;9.212;2023-04-24T11:08:31;2.70;;;1.90;;
286;SDS011;127;48.770;9.212;2023-04-24T11:11:10;2.60;;;1.90;;
286;SDS011;127;48.770;9.212;2023-04-24T11:16:35;1.73;;;1.67;;
286;SDS011;127;48.770;9.212;2023-04-24T11:19:10;2.23;;;1.93;;
286;SDS011;127;48.770;9.212;2023-04-24T11:21:47;2.20;;;1.90;;
286;SDS011;127;48.770;9.212;2023-04-24T11:24:26;2.27;;;2.10;;
286;SDS011;127;48.770;9.212;2023-04-24T11:26:57;2.30;;;2.10;;
286;SDS011;127;48.770;9.212;2023-04-24T11:29:46;2.50;;;2.30;;
286;SDS011;127;48.770;9.212;2023-04-24T11:32:16;3.73;;;1.70;;
286;SDS011;127;48.770;9.212;2023-04-24T11:34:47;1.83;;;1.73;;
286;SDS011;127;48.770;9.212;2023-04-24T11:37:26;3.20;;;2.17;;
286;SDS011;127;48.770;9.212;2023-04-24T11:40:00;4.13;;;2.10;;
286;SDS011;127;48.770;9.212;2023-04-24T11:42:33;2.57;;;1.90;;
286;SDS011;127;48.770;9.212;2023-04-24T11:45:12;5.33;;;2.10;;
286;SDS011;127;48.770;9.212;2023-04-24T11:47:44;3.73;;;2.23;;
286;SDS011;127;48.770;9.212;2023-04-24T11:50:15;1.80;;;1.80;;
286;SDS011;127;48.770;9.212;2023-04-24T11:52:46;3.97;;;2.10;;
286;SDS011;127;48.770;9.212;2023-04-24T11:55:25;2.23;;;2.03;;
286;SDS011;127;48.770;9.212;2023-04-24T11:57:59;4.73;;;2.47;;
286;SDS011;127;48.770;9.212;2023-04-24T12:00:31;3.60;;;2.10;;
286;SDS011;127;48.770;9.212;2023-04-24T12:03:06;3.63;;;1.90;;
286;SDS011;127;48.770;9.212;2023-04-24T12:05:38;2.90;;;2.30;;
286;SDS011;127;48.770;9.212;2023-04-24T12:08:07;2.00;;;1.77;;
286;SDS011;127;48.770;9.212;2023-04-24T12:10:36;3.00;;;1.97;;
286;SDS011;127;48.770;9.212;2023-04-24T12:13:11;2.80;;;1.83;;
286;SDS011;127;48.770;9.212;2023-04-24T12:15:44;10.00;;;2.20;;
286;SDS011;127;48.770;9.212;2023-04-24T12:18:21;2.20;;;2.00;;
286;SDS011;127;48.770;9.212;2023-04-24T12:20:50;1.93;;;1.70;;
286;SDS011;127;48.770;9.212;2023-04-24T12:23:35;4.80;;;2.53;;
286;SDS011;127;48.770;9.212;2023-04-24T12:26:14;3.17;;;1.70;;
286;SDS011;127;48.770;9.212;2023-04-24T12:28:48;7.73;;;1.80;;
286;SDS011;127;48.770;9.212;2023-04-24T12:31:26;3.43;;;2.07;;
286;SDS011;127;48.770;9.212;2023-04-24T12:34:00;2.50;;;2.20;;
286;SDS011;127;48.770;9.212;2023-04-24T12:36:32;2.90;;;2.40;;
286;SDS011;127;48.770;9.212;2023-04-24T12:39:03;3.27;;;2.50;;
286;SDS011;127;48.770;9.212;2023-04-24T12:41:55;3.80;;;2.33;;
286;SDS011;127;48.770;9.212;2023-04-24T12:44:30;3.10;;;2.57;;
286;SDS011;127;48.770;9.212;2023-04-24T12:47:05;2.77;;;2.13;;
286;SDS011;127;48.770;9.212;2023-04-24T12:49:42;2.87;;;2.07;;
286;SDS011;127;48.770;9.212;2023-04-24T12:52:14;2.77;;;2.20;;
286;SDS011;127;48.770;9.212;2023-04-24T12:54:42;6.40;;;2.20;;
286;SDS011;127;48.770;9.212;2023-04-24T12:57:11;3.30;;;2.27;;
286;SDS011;127;48.770;9.212;2023-04-24T12:59:40;6.23;;;2.13;;
286;SDS011;127;48.770;9.212;2023-04-24T13:02:11;7.10;;;2.10;;
286;SDS011;127;48.770;9.212;2023-04-24T13:04:47;3.43;;;2.20;;
286;SDS011;127;48.770;9.212;2023-04-24T13:07:16;2.63;;;2.20;;
286;SDS011;127;48.770;9.212;2023-04-24T13:09:47;2.33;;;1.83;;
286;SDS011;127;48.770;9.212;2023-04-24T13:12:17;2.53;;;2.40;;
286;SDS011;127;48.770;9.212;2023-04-24T13:14:46;5.47;;;2.30;;
286;SDS011;127;48.770;9.212;2023-04-24T13:17:17;2.40;;;1.90;;
286;SDS011;127;48.770;9.212;2023-04-24T13:19:48;3.50;;;2.00;;
286;SDS011;127;48.770;9.212;2023-04-24T13:25:17;1.83;;;1.73;;
286;SDS011;127;48.770;9.212;2023-04-24T13:27:50;1.83;;;1.80;;
286;SDS011;127;48.770;9.212;2023-04-24T13:30:23;1.77;;;1.77;;
286;SDS011;127;48.770;9.212;2023-04-24T13:33:17;1.80;;;1.77;;
286;SDS011;127;48.770;9.212;2023-04-24T13:35:46;6.67;;;1.83;;
286;SDS011;127;48.770;9.212;2023-04-24T13:38:15;2.90;;;2.10;;
286;SDS011;127;48.770;9.212;2023-04-24T13:40:48;3.83;;;2.50;;
286;SDS011;127;48.770;9.212;2023-04-24T13:43:17;5.03;;;2.03;;
286;SDS011;127;48.770;9.212;2023-04-24T13:45:50;3.10;;;2.03;;
286;SDS011;127;48.770;9.212;2023-04-24T13:48:29;2.53;;;2.00;;
286;SDS011;127;48.770;9.212;2023-04-24T13:51:01;2.97;;;2.43;;
286;SDS011;127;48.770;9.212;2023-04-24T13:53:33;4.20;;;2.60;;
286;SDS011;127;48.770;9.212;2023-04-24T13:56:03;7.00;;;3.60;;
286;SDS011;127;48.770;9.212;2023-04-24T13:58:38;2.90;;;2.70;;
286;SDS011;127;48.770;9.212;2023-04-24T14:01:10;3.50;;;2.40;;
286;SDS011;127;48.770;9.212;2023-04-24T14:03:46;3.33;;;3.00;;
286;SDS011;127;48.770;9.212;2023-04-24T14:06:17;4.40;;;2.80;;
286;SDS011;127;48.770;9.212;2023-04-24T14:08:46;2.50;;;2.30;;
286;SDS011;127;48.770;9.212;2023-04-24T14:11:15;2.27;;;1.90;;
286;SDS011;127;48.770;9.212;2023-04-24T14:13:44;2.07;;;1.93;;
286;SDS011;127;48.770;9.212;2023-04-24T14:16:17;2.90;;;2.33;;
286;SDS011;127;48.770;9.212;2023-04-24T14:18:55;3.67;;;2.47;;
286;SDS011;127;48.770;9.212;2023-04-24T14:21:27;3.17;;;2.30;;
286;SDS011;127;48.770;9.212;2023-04-24T14:24:00;3.50;;;2.30;;
286;SDS011;127;48.770;9.212;2023-04-24T14:26:29;2.93;;;2.60;;
286;SDS011;127;48.770;9.212;2023-04-24T14:29:25;2.20;;;2.03;;
286;SDS011;127;48.770;9.212;2023-04-24T14:31:55;2.13;;;1.97;;
286;SDS011;127;48.770;9.212;2023-04-24T14:34:31;7.93;;;2.40;;
286;SDS011;127;48.770;9.212;2023-04-24T14:37:02;2.13;;;1.80;;
286;SDS011;127;48.770;9.212;2023-04-24T14:39:33;2.20;;;1.80;;
286;SDS011;127;48.770;9.212;2023-04-24T14:42:13;2.10;;;1.80;;
286;SDS011;127;48.770;9.212;2023-04-24T14:45:16;2.10;;;1.63;;
286;SDS011;127;48.770;9.212;2023-04-24T14:47:43;1.70;;;1.50;;
286;SDS011;127;48.770;9.212;2023-04-24T14:50:16;3.10;;;1.93;;
286;SDS011;127;48.770;9.212;2023-04-24T14:53:04;2.70;;;2.00;;
286;SDS011;127;48.770;9.212;2023-04-24T14:55:51;2.47;;;1.83;;
286;SDS011;127;48.770;9.212;2023-04-24T14:58:33;7.17;;;2.80;;
286;SDS011;127;48.770;9.212;2023-04-24T15:01:02;1.87;;;1.80;;
286;SDS011;127;48.770;9.212;2023-04-24T15:03:35;2.50;;;2.30;;
286;SDS011;127;48.770;9.212;2023-04-24T15:06:14;2.60;;;2.40;;
286;SDS011;127;48.770;9.212;2023-04-24T15:08:45;2.27;;;2.07;;
286;SDS011;127;48.770;9.212;2023-04-24T15:11:14;3.20;;;2.03;;
286;SDS011;127;48.770;9.212;2023-04-24T15:13:43;5.27;;;2.60;;
286;SDS011;127;48.770;9.212;2023-04-24T15:16:12;3.73;;;2.13;;
286;SDS011;127;48.770;9.212;2023-04-24T15:18:45;4.80;;;2.63;;
286;SDS011;127;48.770;9.212;2023-04-24T15:21:22;3.40;;;2.80;;
286;SDS011;127;48.770;9.212;2023-04-24T15:23:51;3.60;;;2.93;;
286;SDS011;127;48.770;9.212;2023-04-24T15:26:22;5.90;;;2.87;;
286;SDS011;127;48.770;9.212;2023-04-24T15:28:53;3.07;;;2.90;;
286;SDS011;127;48.770;9.212;2023-04-24T15:31:27;5.60;;;3.00;;
286;SDS011;127;48.770;9.212;2023-04-24T15:33:58;4.20;;;2.70;;
286;SDS011;127;48.770;9.212;2023-04-24T15:36:31;3.93;;;2.67;;
286;SDS011;127;48.770;9.212;2023-04-24T15:39:00;2.70;;;2.50;;
286;SDS011;127;48.770;9.212;2023-04-24T15:41:29;4.47;;;3.00;;
286;SDS011;127;48.770;9.212;2023-04-24T15:44:01;4.97;;;3.60;;
286;SDS011;127;48.770;9.212;2023-04-24T15:46:34;5.37;;;3.07;;
286;SDS011;127;48.770;9.212;2023-04-24T15:49:05;6.57;;;4.10;;
286;SDS011;127;48.770;9.212;2023-04-24T15:51:36;4.93;;;3.67;;
286;SDS011;127;48.770;9.212;2023-04-24T15:54:05;4.27;;;3.30;;
286;SDS011;127;48.770;9.212;2023-04-24T15:56:39;5.20;;;3.10;;
286;SDS011;127;48.770;9.212;2023-04-24T15:59:21;7.40;;;3.30;;
286;SDS011;127;48.770;9.212;2023-04-24T16:01:51;3.10;;;2.90;;
286;SDS011;127;48.770;9.212;2023-04-24T16:04:22;5.50;;;3.43;;
286;SDS011;127;48.770;9.212;2023-04-24T16:06:54;6.63;;;3.83;;
286;SDS011;127;48.770;9.212;2023-04-24T16:09:30;3.10;;;2.77;;
286;SDS011;127;48.770;9.212;2023-04-24T16:14:43;5.37;;;2.60;;
286;SDS011;127;48.770;9.212;2023-04-24T16:17:11;7.90;;;2.93;;
286;SDS011;127;48.770;9.212;2023-04-24T16:19:43;5.30;;;2.83;;
286;SDS011;127;48.770;9.212;2023-04-24T16:22:14;3.47;;;2.60;;
286;SDS011;127;48.770;9.212;2023-04-24T16:24:43;3.03;;;2.57;;
286;SDS011;127;48.770;9.212;2023-04-24T16:27:12;4.23;;;2.53;;
286;SDS011;127;48.770;9.212;2023-04-24T16:29:41;6.30;;;3.03;;
286;SDS011;127;48.770;9.212;2023-04-24T16:32:10;3.37;;;2.40;;
286;SDS011;127;48.770;9.212;2023-04-24T16:34:42;2.90;;;2.40;;
286;SDS011;127;48.770;9.212;2023-04-24T16:37:11;4.90;;;2.60;;
286;SDS011;127;48.770;9.212;2023-04-24T16:39:42;2.83;;;2.60;;
286;SDS011;127;48.770;9.212;2023-04-24T16:42:11;4.90;;;3.10;;
286;SDS011;127;48.770;9.212;2023-04-24T16:44:42;6.90;;;2.77;;
286;SDS011;127;48.770;9.212;2023-04-24T16:47:11;6.17;;;3.43;;
286;SDS011;127;48.770;9.212;2023-04-24T16:49:41;5.50;;;3.57;;